TIST/STT METAR and TAF weather

Enter ICAO airport designator
Station Type Date Time Source
TIST METAR 2023/02/06 00:53 UTC NOAA

TIST 060053Z 09011KT 10SM CLR 25/20 A3013 RMK AO2 SLP202 T02500200 $


Station Type Date Time Source
TIST Decoded METAR 2023/02/06 00:53 UTC NOAA

Charlotte Amalie St. Thomas, Cyril E. King Airport, Virgin Islands (TIST) 18-20N 064-59W
Feb 05, 2023 - 07:53 PM EST / 2023.02.06 0053 UTC
Wind: from the E (090 degrees) at 13 MPH (11 KT):0
Visibility: 10 mile(s):0
Sky conditions: clear
Temperature: 77.0 F (25.0 C)
Dew Point: 68.0 F (20.0 C)
Relative Humidity: 73%
Pressure (altimeter): 30.13 in. Hg (1020 hPa)
ob: TIST 060053Z 09011KT 10SM CLR 25/20 A3013 RMK AO2 SLP202 T02500200
cycle: 1

Station Type Date Time Source
TIST TAF 2023/02/05 18:54 UTC NOAA

TAF TIST 051740Z 0518/0618 10016G28KT P6SM VCSH SCT025 BKN050
FM052300 09010KT P6SM FEW030 SCT050
FM060400 08008KT P6SM VCSH SCT025 BKN050
FM061400 11016G27KT P6SM SCT030 SCT060

Example: see airport list